sensor_id;sensor_type;location;lat;lon;timestamp;temperature;humidity
66594;DHT22;53450;42.584;23.366;2023-03-25T00:00:58;6.18;73.50
66594;DHT22;53450;42.584;23.366;2023-03-25T00:03:24;6.21;73.52
66594;DHT22;53450;42.584;23.366;2023-03-25T00:05:52;6.14;73.54
66594;DHT22;53450;42.584;23.366;2023-03-25T00:08:17;6.12;73.54
66594;DHT22;53450;42.584;23.366;2023-03-25T00:10:43;6.17;73.50
66594;DHT22;53450;42.584;23.366;2023-03-25T00:13:09;6.02;73.46
66594;DHT22;53450;42.584;23.366;2023-03-25T00:15:44;5.97;73.42
66594;DHT22;53450;42.584;23.366;2023-03-25T00:18:13;5.98;73.98
66594;DHT22;53450;42.584;23.366;2023-03-25T00:20:41;5.83;73.88
66594;DHT22;53450;42.584;23.366;2023-03-25T00:23:11;5.90;74.24
66594;DHT22;53450;42.584;23.366;2023-03-25T00:25:37;5.90;74.00
66594;DHT22;53450;42.584;23.366;2023-03-25T00:28:03;5.90;74.61
66594;DHT22;53450;42.584;23.366;2023-03-25T00:30:29;5.80;74.40
66594;DHT22;53450;42.584;23.366;2023-03-25T00:32:54;5.75;74.44
66594;DHT22;53450;42.584;23.366;2023-03-25T00:35:22;5.73;75.00
66594;DHT22;53450;42.584;23.366;2023-03-25T00:37:50;5.73;74.64
66594;DHT22;53450;42.584;23.366;2023-03-25T00:40:30;5.73;75.41
66594;DHT22;53450;42.584;23.366;2023-03-25T00:43:00;5.64;75.29
66594;DHT22;53450;42.584;23.366;2023-03-25T00:45:26;5.70;75.82
66594;DHT22;53450;42.584;23.366;2023-03-25T00:47:52;5.78;76.00
66594;DHT22;53450;42.584;23.366;2023-03-25T00:50:43;5.77;76.21
66594;DHT22;53450;42.584;23.366;2023-03-25T00:53:34;5.81;76.57
66594;DHT22;53450;42.584;23.366;2023-03-25T00:56:00;5.83;75.94
66594;DHT22;53450;42.584;23.366;2023-03-25T00:58:27;5.89;75.95
66594;DHT22;53450;42.584;23.366;2023-03-25T01:00:53;5.97;75.93
66594;DHT22;53450;42.584;23.366;2023-03-25T01:03:24;5.87;76.02
66594;DHT22;53450;42.584;23.366;2023-03-25T01:05:51;5.90;75.92
66594;DHT22;53450;42.584;23.366;2023-03-25T01:08:20;5.87;76.01
66594;DHT22;53450;42.584;23.366;2023-03-25T01:10:52;5.90;76.15
66594;DHT22;53450;42.584;23.366;2023-03-25T01:13:19;5.89;76.32
66594;DHT22;53450;42.584;23.366;2023-03-25T01:15:45;5.90;76.30
66594;DHT22;53450;42.584;23.366;2023-03-25T01:18:11;5.90;76.04
66594;DHT22;53450;42.584;23.366;2023-03-25T01:20:38;5.78;76.03
66594;DHT22;53450;42.584;23.366;2023-03-25T01:23:04;5.86;76.09
66594;DHT22;53450;42.584;23.366;2023-03-25T01:25:30;5.83;76.27
66594;DHT22;53450;42.584;23.366;2023-03-25T01:27:55;5.89;76.08
66594;DHT22;53450;42.584;23.366;2023-03-25T01:30:21;5.81;75.87
66594;DHT22;53450;42.584;23.366;2023-03-25T01:32:46;5.89;76.06
66594;DHT22;53450;42.584;23.366;2023-03-25T01:35:12;5.89;76.02
66594;DHT22;53450;42.584;23.366;2023-03-25T01:37:38;5.93;75.87
66594;DHT22;53450;42.584;23.366;2023-03-25T01:40:04;5.89;76.13
66594;DHT22;53450;42.584;23.366;2023-03-25T01:42:32;5.80;76.28
66594;DHT22;53450;42.584;23.366;2023-03-25T01:45:13;5.74;76.28
66594;DHT22;53450;42.584;23.366;2023-03-25T01:47:40;5.84;76.52
66594;DHT22;53450;42.584;23.366;2023-03-25T01:50:07;5.80;76.57
66594;DHT22;53450;42.584;23.366;2023-03-25T01:52:35;5.83;76.60
66594;DHT22;53450;42.584;23.366;2023-03-25T01:55:01;5.74;76.80
66594;DHT22;53450;42.584;23.366;2023-03-25T01:57:27;5.77;77.02
66594;DHT22;53450;42.584;23.366;2023-03-25T01:59:55;5.80;76.78
66594;DHT22;53450;42.584;23.366;2023-03-25T02:02:22;5.78;76.76
66594;DHT22;53450;42.584;23.366;2023-03-25T02:04:56;5.81;76.60
66594;DHT22;53450;42.584;23.366;2023-03-25T02:07:26;5.70;76.86
66594;DHT22;53450;42.584;23.366;2023-03-25T02:09:59;5.70;76.97
66594;DHT22;53450;42.584;23.366;2023-03-25T02:12:27;5.66;76.89
66594;DHT22;53450;42.584;23.366;2023-03-25T02:14:53;5.66;76.97
66594;DHT22;53450;42.584;23.366;2023-03-25T02:39:30;5.47;77.35
66594;DHT22;53450;42.584;23.366;2023-03-25T02:45:11;5.46;77.54
66594;DHT22;53450;42.584;23.366;2023-03-25T02:47:44;5.47;77.60
66594;DHT22;53450;42.584;23.366;2023-03-25T02:50:18;5.53;77.78
66594;DHT22;53450;42.584;23.366;2023-03-25T02:53:14;5.59;77.53
66594;DHT22;53450;42.584;23.366;2023-03-25T02:55:42;5.57;77.39
66594;DHT22;53450;42.584;23.366;2023-03-25T02:58:11;5.56;77.46
66594;DHT22;53450;42.584;23.366;2023-03-25T03:00:38;5.44;77.46
66594;DHT22;53450;42.584;23.366;2023-03-25T03:03:06;5.53;77.55
66594;DHT22;53450;42.584;23.366;2023-03-25T03:05:34;5.44;77.53
66594;DHT22;53450;42.584;23.366;2023-03-25T03:14:24;5.46;78.06
66594;DHT22;53450;42.584;23.366;2023-03-25T03:22:38;5.36;78.25
66594;DHT22;53450;42.584;23.366;2023-03-25T03:25:16;5.33;78.37
66594;DHT22;53450;42.584;23.366;2023-03-25T03:30:23;5.38;78.52
66594;DHT22;53450;42.584;23.366;2023-03-25T03:33:13;5.33;78.41
66594;DHT22;53450;42.584;23.366;2023-03-25T03:36:05;5.36;78.47
66594;DHT22;53450;42.584;23.366;2023-03-25T03:38:37;5.33;78.34
66594;DHT22;53450;42.584;23.366;2023-03-25T03:41:10;5.39;78.14
66594;DHT22;53450;42.584;23.366;2023-03-25T03:43:41;5.40;78.17
66594;DHT22;53450;42.584;23.366;2023-03-25T03:46:22;5.40;78.30
66594;DHT22;53450;42.584;23.366;2023-03-25T03:48:56;5.47;78.13
66594;DHT22;53450;42.584;23.366;2023-03-25T03:51:27;5.54;77.79
66594;DHT22;53450;42.584;23.366;2023-03-25T03:56:39;5.44;77.65
66594;DHT22;53450;42.584;23.366;2023-03-25T03:59:14;5.42;77.96
66594;DHT22;53450;42.584;23.366;2023-03-25T04:01:46;5.38;78.04
66594;DHT22;53450;42.584;23.366;2023-03-25T04:04:21;5.39;77.96
66594;DHT22;53450;42.584;23.366;2023-03-25T04:12:16;5.43;77.71
66594;DHT22;53450;42.584;23.366;2023-03-25T04:14:43;5.25;77.98
66594;DHT22;53450;42.584;23.366;2023-03-25T04:17:10;5.23;78.19
66594;DHT22;53450;42.584;23.366;2023-03-25T04:19:36;5.16;78.38
66594;DHT22;53450;42.584;23.366;2023-03-25T04:22:04;5.12;78.57
66594;DHT22;53450;42.584;23.366;2023-03-25T04:24:30;5.15;78.66
66594;DHT22;53450;42.584;23.366;2023-03-25T04:26:57;5.21;78.70
66594;DHT22;53450;42.584;23.366;2023-03-25T04:29:24;5.15;78.60
66594;DHT22;53450;42.584;23.366;2023-03-25T04:31:50;5.12;78.64
66594;DHT22;53450;42.584;23.366;2023-03-25T04:34:21;5.09;78.82
66594;DHT22;53450;42.584;23.366;2023-03-25T04:36:46;5.08;79.00
66594;DHT22;53450;42.584;23.366;2023-03-25T04:39:15;4.99;79.33
66594;DHT22;53450;42.584;23.366;2023-03-25T04:41:42;4.99;79.36
66594;DHT22;53450;42.584;23.366;2023-03-25T04:44:09;5.01;79.62
66594;DHT22;53450;42.584;23.366;2023-03-25T04:46:35;5.09;79.54
66594;DHT22;53450;42.584;23.366;2023-03-25T04:49:05;5.16;79.45
66594;DHT22;53450;42.584;23.366;2023-03-25T04:51:36;5.21;79.59
66594;DHT22;53450;42.584;23.366;2023-03-25T04:54:02;5.40;79.08
66594;DHT22;53450;42.584;23.366;2023-03-25T04:56:28;5.52;78.77
66594;DHT22;53450;42.584;23.366;2023-03-25T04:58:53;5.56;78.63
66594;DHT22;53450;42.584;23.366;2023-03-25T05:01:27;5.66;78.72
66594;DHT22;53450;42.584;23.366;2023-03-25T05:04:00;5.69;78.83
66594;DHT22;53450;42.584;23.366;2023-03-25T05:06:36;5.71;78.82
66594;DHT22;53450;42.584;23.366;2023-03-25T05:09:11;5.91;78.45
66594;DHT22;53450;42.584;23.366;2023-03-25T05:11:38;5.94;78.24
66594;DHT22;53450;42.584;23.366;2023-03-25T05:14:09;5.97;77.68
66594;DHT22;53450;42.584;23.366;2023-03-25T05:16:36;5.98;77.72
66594;DHT22;53450;42.584;23.366;2023-03-25T05:19:02;6.11;76.62
66594;DHT22;53450;42.584;23.366;2023-03-25T05:21:35;6.18;77.11
66594;DHT22;53450;42.584;23.366;2023-03-25T05:24:06;6.22;77.29
66594;DHT22;53450;42.584;23.366;2023-03-25T05:26:36;6.49;77.93
66594;DHT22;53450;42.584;23.366;2023-03-25T05:29:07;6.69;77.89
66594;DHT22;53450;42.584;23.366;2023-03-25T05:31:33;6.81;77.47
66594;DHT22;53450;42.584;23.366;2023-03-25T05:33:59;6.90;76.74
66594;DHT22;53450;42.584;23.366;2023-03-25T05:36:25;6.86;75.77
66594;DHT22;53450;42.584;23.366;2023-03-25T05:38:54;6.99;75.63
66594;DHT22;53450;42.584;23.366;2023-03-25T05:41:26;7.18;75.40
66594;DHT22;53450;42.584;23.366;2023-03-25T05:44:00;7.38;75.14
66594;DHT22;53450;42.584;23.366;2023-03-25T05:46:27;7.69;74.47
66594;DHT22;53450;42.584;23.366;2023-03-25T05:48:54;7.73;74.31
66594;DHT22;53450;42.584;23.366;2023-03-25T05:51:23;7.85;74.02
66594;DHT22;53450;42.584;23.366;2023-03-25T05:53:49;8.06;73.37
66594;DHT22;53450;42.584;23.366;2023-03-25T05:56:16;8.27;72.32
66594;DHT22;53450;42.584;23.366;2023-03-25T05:58:48;8.40;71.82
66594;DHT22;53450;42.584;23.366;2023-03-25T06:01:14;8.67;70.88
66594;DHT22;53450;42.584;23.366;2023-03-25T06:03:42;8.79;70.47
66594;DHT22;53450;42.584;23.366;2023-03-25T06:06:09;9.15;70.72
66594;DHT22;53450;42.584;23.366;2023-03-25T06:08:40;9.30;69.37
66594;DHT22;53450;42.584;23.366;2023-03-25T06:11:09;9.46;69.53
66594;DHT22;53450;42.584;23.366;2023-03-25T06:13:39;9.55;69.15
66594;DHT22;53450;42.584;23.366;2023-03-25T06:16:07;9.70;67.34
66594;DHT22;53450;42.584;23.366;2023-03-25T06:18:35;9.81;67.18
66594;DHT22;53450;42.584;23.366;2023-03-25T06:21:02;9.89;67.08
66594;DHT22;53450;42.584;23.366;2023-03-25T06:23:28;10.02;66.28
66594;DHT22;53450;42.584;23.366;2023-03-25T06:25:55;10.15;65.84
66594;DHT22;53450;42.584;23.366;2023-03-25T06:28:22;10.19;65.89
66594;DHT22;53450;42.584;23.366;2023-03-25T06:30:48;10.28;66.63
66594;DHT22;53450;42.584;23.366;2023-03-25T06:33:15;10.46;65.51
66594;DHT22;53450;42.584;23.366;2023-03-25T06:35:46;10.52;65.25
66594;DHT22;53450;42.584;23.366;2023-03-25T06:38:44;10.71;64.31
66594;DHT22;53450;42.584;23.366;2023-03-25T06:41:13;10.83;63.60
66594;DHT22;53450;42.584;23.366;2023-03-25T06:43:39;10.88;62.68
66594;DHT22;53450;42.584;23.366;2023-03-25T06:46:44;11.04;62.15
66594;DHT22;53450;42.584;23.366;2023-03-25T06:49:15;11.08;63.09
66594;DHT22;53450;42.584;23.366;2023-03-25T06:51:41;11.16;62.38
66594;DHT22;53450;42.584;23.366;2023-03-25T06:54:07;11.24;62.21
66594;DHT22;53450;42.584;23.366;2023-03-25T06:56:34;11.33;62.71
66594;DHT22;53450;42.584;23.366;2023-03-25T06:59:25;11.55;61.21
66594;DHT22;53450;42.584;23.366;2023-03-25T07:02:16;11.66;61.59
66594;DHT22;53450;42.584;23.366;2023-03-25T07:04:41;11.80;60.77
66594;DHT22;53450;42.584;23.366;2023-03-25T07:07:08;11.86;60.68
66594;DHT22;53450;42.584;23.366;2023-03-25T07:09:33;11.87;59.66
66594;DHT22;53450;42.584;23.366;2023-03-25T07:11:59;11.94;59.16
66594;DHT22;53450;42.584;23.366;2023-03-25T07:14:25;12.11;58.52
66594;DHT22;53450;42.584;23.366;2023-03-25T07:16:50;12.13;60.08
66594;DHT22;53450;42.584;23.366;2023-03-25T07:19:16;12.21;59.93
66594;DHT22;53450;42.584;23.366;2023-03-25T07:21:41;12.32;60.94
66594;DHT22;53450;42.584;23.366;2023-03-25T07:24:07;12.51;58.41
66594;DHT22;53450;42.584;23.366;2023-03-25T07:26:33;12.55;59.77
66594;DHT22;53450;42.584;23.366;2023-03-25T07:28:58;12.62;59.07
66594;DHT22;53450;42.584;23.366;2023-03-25T07:31:24;12.66;59.35
66594;DHT22;53450;42.584;23.366;2023-03-25T07:33:50;12.78;58.43
66594;DHT22;53450;42.584;23.366;2023-03-25T07:36:16;12.73;58.78
66594;DHT22;53450;42.584;23.366;2023-03-25T07:38:45;12.82;58.14
66594;DHT22;53450;42.584;23.366;2023-03-25T07:41:13;12.89;57.37
66594;DHT22;53450;42.584;23.366;2023-03-25T07:43:55;12.88;56.96
66594;DHT22;53450;42.584;23.366;2023-03-25T07:46:25;12.90;57.99
66594;DHT22;53450;42.584;23.366;2023-03-25T07:48:51;13.04;57.71
66594;DHT22;53450;42.584;23.366;2023-03-25T07:51:17;13.14;57.30
66594;DHT22;53450;42.584;23.366;2023-03-25T07:53:42;13.26;56.82
66594;DHT22;53450;42.584;23.366;2023-03-25T07:56:11;13.30;57.00
66594;DHT22;53450;42.584;23.366;2023-03-25T07:58:37;13.43;55.45
66594;DHT22;53450;42.584;23.366;2023-03-25T08:01:04;13.26;56.73
66594;DHT22;53450;42.584;23.366;2023-03-25T08:03:33;13.21;57.13
66594;DHT22;53450;42.584;23.366;2023-03-25T08:06:05;13.36;58.41
66594;DHT22;53450;42.584;23.366;2023-03-25T08:08:31;13.28;56.85
66594;DHT22;53450;42.584;23.366;2023-03-25T08:11:00;13.44;58.13
66594;DHT22;53450;42.584;23.366;2023-03-25T08:13:26;13.47;56.93
66594;DHT22;53450;42.584;23.366;2023-03-25T08:15:52;13.64;56.93
66594;DHT22;53450;42.584;23.366;2023-03-25T08:18:18;13.69;56.89
66594;DHT22;53450;42.584;23.366;2023-03-25T08:20:44;13.92;54.97
66594;DHT22;53450;42.584;23.366;2023-03-25T08:23:10;14.12;55.45
66594;DHT22;53450;42.584;23.366;2023-03-25T08:25:39;14.25;55.36
66594;DHT22;53450;42.584;23.366;2023-03-25T08:28:06;14.33;54.38
66594;DHT22;53450;42.584;23.366;2023-03-25T08:30:36;14.53;53.50
66594;DHT22;53450;42.584;23.366;2023-03-25T08:33:04;14.59;52.47
66594;DHT22;53450;42.584;23.366;2023-03-25T08:35:32;14.66;53.02
66594;DHT22;53450;42.584;23.366;2023-03-25T08:37:58;14.88;54.94
66594;DHT22;53450;42.584;23.366;2023-03-25T08:40:26;15.05;53.63
66594;DHT22;53450;42.584;23.366;2023-03-25T08:42:55;15.21;53.98
66594;DHT22;53450;42.584;23.366;2023-03-25T08:45:21;15.35;53.02
66594;DHT22;53450;42.584;23.366;2023-03-25T08:47:47;15.45;51.20
66594;DHT22;53450;42.584;23.366;2023-03-25T08:50:15;15.55;51.39
66594;DHT22;53450;42.584;23.366;2023-03-25T08:52:41;15.43;51.29
66594;DHT22;53450;42.584;23.366;2023-03-25T08:55:08;15.46;50.77
66594;DHT22;53450;42.584;23.366;2023-03-25T08:57:35;15.57;50.83
66594;DHT22;53450;42.584;23.366;2023-03-25T09:00:05;15.50;50.92
66594;DHT22;53450;42.584;23.366;2023-03-25T09:02:37;15.59;51.40
66594;DHT22;53450;42.584;23.366;2023-03-25T09:05:03;15.79;50.73
66594;DHT22;53450;42.584;23.366;2023-03-25T09:07:28;15.90;51.31
66594;DHT22;53450;42.584;23.366;2023-03-25T09:09:55;15.90;50.12
66594;DHT22;53450;42.584;23.366;2023-03-25T09:12:21;16.01;49.93
66594;DHT22;53450;42.584;23.366;2023-03-25T09:14:46;16.14;49.91
66594;DHT22;53450;42.584;23.366;2023-03-25T09:17:12;16.17;49.13
66594;DHT22;53450;42.584;23.366;2023-03-25T09:19:38;16.01;49.75
66594;DHT22;53450;42.584;23.366;2023-03-25T09:22:04;15.97;50.59
66594;DHT22;53450;42.584;23.366;2023-03-25T09:24:30;15.86;50.56
66594;DHT22;53450;42.584;23.366;2023-03-25T09:27:01;15.76;51.35
66594;DHT22;53450;42.584;23.366;2023-03-25T09:29:28;15.60;51.97
66594;DHT22;53450;42.584;23.366;2023-03-25T09:31:54;15.57;50.08
66594;DHT22;53450;42.584;23.366;2023-03-25T09:34:22;15.64;50.51
66594;DHT22;53450;42.584;23.366;2023-03-25T09:36:48;15.50;50.78
66594;DHT22;53450;42.584;23.366;2023-03-25T09:39:14;15.50;51.10
66594;DHT22;53450;42.584;23.366;2023-03-25T09:45:14;15.73;50.31
66594;DHT22;53450;42.584;23.366;2023-03-25T09:47:13;15.73;51.06
66594;DHT22;53450;42.584;23.366;2023-03-25T09:49:43;15.94;49.53
66594;DHT22;53450;42.584;23.366;2023-03-25T09:52:23;16.10;48.84
66594;DHT22;53450;42.584;23.366;2023-03-25T09:55:01;16.07;49.19
66594;DHT22;53450;42.584;23.366;2023-03-25T09:57:30;16.35;49.63
66594;DHT22;53450;42.584;23.366;2023-03-25T09:59:59;16.42;48.87
66594;DHT22;53450;42.584;23.366;2023-03-25T10:03:06;16.47;49.88
66594;DHT22;53450;42.584;23.366;2023-03-25T10:06:00;16.72;49.81
66594;DHT22;53450;42.584;23.366;2023-03-25T10:08:43;16.76;48.57
66594;DHT22;53450;42.584;23.366;2023-03-25T10:14:15;16.87;48.21
66594;DHT22;53450;42.584;23.366;2023-03-25T10:17:29;16.80;49.07
66594;DHT22;53450;42.584;23.366;2023-03-25T10:22:58;16.63;48.42
66594;DHT22;53450;42.584;23.366;2023-03-25T10:25:30;16.65;48.92
66594;DHT22;53450;42.584;23.366;2023-03-25T10:28:33;16.68;48.64
66594;DHT22;53450;42.584;23.366;2023-03-25T10:31:02;16.76;48.19
66594;DHT22;53450;42.584;23.366;2023-03-25T10:33:38;16.58;48.42
66594;DHT22;53450;42.584;23.366;2023-03-25T10:36:09;16.63;48.91
66594;DHT22;53450;42.584;23.366;2023-03-25T10:38:37;16.69;49.29
66594;DHT22;53450;42.584;23.366;2023-03-25T10:41:23;16.79;48.78
66594;DHT22;53450;42.584;23.366;2023-03-25T10:43:50;16.99;47.32
66594;DHT22;53450;42.584;23.366;2023-03-25T10:49:02;17.13;46.93
66594;DHT22;53450;42.584;23.366;2023-03-25T10:51:33;17.23;46.32
66594;DHT22;53450;42.584;23.366;2023-03-25T10:54:00;17.31;46.91
66594;DHT22;53450;42.584;23.366;2023-03-25T10:56:54;17.54;46.47
66594;DHT22;53450;42.584;23.366;2023-03-25T10:59:32;17.64;46.08
66594;DHT22;53450;42.584;23.366;2023-03-25T11:02:04;17.72;45.85
66594;DHT22;53450;42.584;23.366;2023-03-25T11:04:39;17.57;45.99
66594;DHT22;53450;42.584;23.366;2023-03-25T11:07:19;17.68;44.68
66594;DHT22;53450;42.584;23.366;2023-03-25T11:09:46;17.82;43.60
66594;DHT22;53450;42.584;23.366;2023-03-25T11:12:17;18.05;44.40
66594;DHT22;53450;42.584;23.366;2023-03-25T11:14:43;18.02;42.73
66594;DHT22;53450;42.584;23.366;2023-03-25T11:17:15;18.20;43.67
66594;DHT22;53450;42.584;23.366;2023-03-25T11:19:55;18.29;43.08
66594;DHT22;53450;42.584;23.366;2023-03-25T11:22:25;18.54;42.35
66594;DHT22;53450;42.584;23.366;2023-03-25T11:24:58;18.32;42.83
66594;DHT22;53450;42.584;23.366;2023-03-25T11:27:26;18.23;42.86
66594;DHT22;53450;42.584;23.366;2023-03-25T11:29:56;18.05;42.84
66594;DHT22;53450;42.584;23.366;2023-03-25T11:32:38;18.02;43.06
66594;DHT22;53450;42.584;23.366;2023-03-25T11:35:22;17.99;42.48
66594;DHT22;53450;42.584;23.366;2023-03-25T11:37:54;17.96;42.35
66594;DHT22;53450;42.584;23.366;2023-03-25T11:40:21;17.92;42.98
66594;DHT22;53450;42.584;23.366;2023-03-25T11:42:57;17.96;43.50
66594;DHT22;53450;42.584;23.366;2023-03-25T11:45:31;18.16;42.47
66594;DHT22;53450;42.584;23.366;2023-03-25T11:48:00;18.29;42.23
66594;DHT22;53450;42.584;23.366;2023-03-25T11:50:28;18.43;42.12
66594;DHT22;53450;42.584;23.366;2023-03-25T11:52:57;18.47;42.72
66594;DHT22;53450;42.584;23.366;2023-03-25T11:55:27;18.14;43.82
66594;DHT22;53450;42.584;23.366;2023-03-25T11:57:54;17.95;43.89
66594;DHT22;53450;42.584;23.366;2023-03-25T12:05:26;17.91;44.17
66594;DHT22;53450;42.584;23.366;2023-03-25T12:08:00;17.88;43.56
66594;DHT22;53450;42.584;23.366;2023-03-25T12:10:42;17.96;43.73
66594;DHT22;53450;42.584;23.366;2023-03-25T12:13:23;18.09;43.74
66594;DHT22;53450;42.584;23.366;2023-03-25T12:16:24;18.16;43.07
66594;DHT22;53450;42.584;23.366;2023-03-25T12:24:38;17.98;42.07
66594;DHT22;53450;42.584;23.366;2023-03-25T12:33:04;18.27;41.10
66594;DHT22;53450;42.584;23.366;2023-03-25T12:35:44;18.23;41.62
66594;DHT22;53450;42.584;23.366;2023-03-25T12:38:31;18.10;40.62
66594;DHT22;53450;42.584;23.366;2023-03-25T12:41:27;18.08;41.22
66594;DHT22;53450;42.584;23.366;2023-03-25T12:51:49;18.03;41.56
66594;DHT22;53450;42.584;23.366;2023-03-25T12:54:36;17.78;41.98
66594;DHT22;53450;42.584;23.366;2023-03-25T13:05:16;17.44;42.33
66594;DHT22;53450;42.584;23.366;2023-03-25T13:07:49;17.34;42.37
66594;DHT22;53450;42.584;23.366;2023-03-25T13:10:21;17.42;42.29
66594;DHT22;53450;42.584;23.366;2023-03-25T13:12:50;17.40;42.46
66594;DHT22;53450;42.584;23.366;2023-03-25T13:15:34;17.51;42.13
66594;DHT22;53450;42.584;23.366;2023-03-25T13:20:36;17.16;41.88
66594;DHT22;53450;42.584;23.366;2023-03-25T13:23:06;17.11;42.39
66594;DHT22;53450;42.584;23.366;2023-03-25T13:25:55;17.14;42.58
66594;DHT22;53450;42.584;23.366;2023-03-25T13:28:27;17.16;42.93
66594;DHT22;53450;42.584;23.366;2023-03-25T13:30:54;17.02;43.59
66594;DHT22;53450;42.584;23.366;2023-03-25T13:33:26;16.89;43.34
66594;DHT22;53450;42.584;23.366;2023-03-25T13:35:58;16.82;43.27
66594;DHT22;53450;42.584;23.366;2023-03-25T13:38:33;16.75;43.98
66594;DHT22;53450;42.584;23.366;2023-03-25T13:41:21;16.65;44.34
66594;DHT22;53450;42.584;23.366;2023-03-25T13:44:05;16.51;45.73
66594;DHT22;53450;42.584;23.366;2023-03-25T13:49:31;16.11;49.68
66594;DHT22;53450;42.584;23.366;2023-03-25T13:51:54;15.91;51.05
66594;DHT22;53450;42.584;23.366;2023-03-25T14:02:30;14.88;58.32
66594;DHT22;53450;42.584;23.366;2023-03-25T14:07:45;14.10;61.99
66594;DHT22;53450;42.584;23.366;2023-03-25T14:13:00;13.55;66.18
66594;DHT22;53450;42.584;23.366;2023-03-25T14:15:35;13.36;67.57
66594;DHT22;53450;42.584;23.366;2023-03-25T14:18:03;13.19;69.78
66594;DHT22;53450;42.584;23.366;2023-03-25T14:20:33;13.09;67.98
66594;DHT22;53450;42.584;23.366;2023-03-25T14:23:07;12.97;70.21
66594;DHT22;53450;42.584;23.366;2023-03-25T14:25:39;12.83;70.04
66594;DHT22;53450;42.584;23.366;2023-03-25T14:28:07;12.80;71.97
66594;DHT22;53450;42.584;23.366;2023-03-25T14:30:35;12.63;71.47
66594;DHT22;53450;42.584;23.366;2023-03-25T14:33:01;12.65;71.46
66594;DHT22;53450;42.584;23.366;2023-03-25T14:38:10;12.53;73.00
66594;DHT22;53450;42.584;23.366;2023-03-25T14:43:24;12.48;73.82
66594;DHT22;53450;42.584;23.366;2023-03-25T14:56:53;12.93;71.40
66594;DHT22;53450;42.584;23.366;2023-03-25T14:59:36;13.07;70.37
66594;DHT22;53450;42.584;23.366;2023-03-25T15:02:30;13.20;69.64
66594;DHT22;53450;42.584;23.366;2023-03-25T15:05:19;13.34;71.19
66594;DHT22;53450;42.584;23.366;2023-03-25T15:07:58;13.51;72.36
66594;DHT22;53450;42.584;23.366;2023-03-25T15:10:32;13.65;71.44
66594;DHT22;53450;42.584;23.366;2023-03-25T15:13:14;13.77;70.89
66594;DHT22;53450;42.584;23.366;2023-03-25T15:21:10;13.51;69.89
66594;DHT22;53450;42.584;23.366;2023-03-25T15:23:47;13.58;70.78
66594;DHT22;53450;42.584;23.366;2023-03-25T19:34:34;10.83;62.56
66594;DHT22;53450;42.584;23.366;2023-03-25T19:37:00;10.77;62.94
66594;DHT22;53450;42.584;23.366;2023-03-25T19:39:30;10.67;63.05
66594;DHT22;53450;42.584;23.366;2023-03-25T19:41:55;10.67;63.05
66594;DHT22;53450;42.584;23.366;2023-03-25T19:44:22;10.73;63.56
66594;DHT22;53450;42.584;23.366;2023-03-25T19:46:48;10.68;62.63
66594;DHT22;53450;42.584;23.366;2023-03-25T19:49:13;10.64;64.52
66594;DHT22;53450;42.584;23.366;2023-03-25T19:51:39;10.54;64.74
66594;DHT22;53450;42.584;23.366;2023-03-25T19:54:07;10.39;64.17
66594;DHT22;53450;42.584;23.366;2023-03-25T19:56:38;10.20;65.06
66594;DHT22;53450;42.584;23.366;2023-03-25T19:59:04;10.10;65.64
66594;DHT22;53450;42.584;23.366;2023-03-25T20:01:30;9.96;66.29
66594;DHT22;53450;42.584;23.366;2023-03-25T20:03:56;9.78;66.94
66594;DHT22;53450;42.584;23.366;2023-03-25T20:06:48;9.68;65.91
66594;DHT22;53450;42.584;23.366;2023-03-25T20:09:14;9.61;66.52
66594;DHT22;53450;42.584;23.366;2023-03-25T20:11:40;9.51;66.64
66594;DHT22;53450;42.584;23.366;2023-03-25T20:14:05;9.47;66.61
66594;DHT22;53450;42.584;23.366;2023-03-25T20:16:31;9.43;66.04
66594;DHT22;53450;42.584;23.366;2023-03-25T20:18:59;9.44;66.56
66594;DHT22;53450;42.584;23.366;2023-03-25T20:21:25;9.50;64.95
66594;DHT22;53450;42.584;23.366;2023-03-25T20:23:50;9.64;63.86
66594;DHT22;53450;42.584;23.366;2023-03-25T20:26:16;9.73;65.20
66594;DHT22;53450;42.584;23.366;2023-03-25T20:28:42;9.81;65.27
66594;DHT22;53450;42.584;23.366;2023-03-25T20:31:26;9.88;64.39
66594;DHT22;53450;42.584;23.366;2023-03-25T20:33:52;9.94;64.85
66594;DHT22;53450;42.584;23.366;2023-03-25T20:36:18;10.17;64.06
66594;DHT22;53450;42.584;23.366;2023-03-25T20:39:11;10.23;64.02
66594;DHT22;53450;42.584;23.366;2023-03-25T20:42:02;10.16;65.35
66594;DHT22;53450;42.584;23.366;2023-03-25T20:44:28;10.09;65.31
66594;DHT22;53450;42.584;23.366;2023-03-25T20:46:53;10.06;65.48
66594;DHT22;53450;42.584;23.366;2023-03-25T20:49:19;10.10;65.04
66594;DHT22;53450;42.584;23.366;2023-03-25T20:52:15;10.17;65.19
66594;DHT22;53450;42.584;23.366;2023-03-25T20:54:45;10.15;65.39
66594;DHT22;53450;42.584;23.366;2023-03-25T20:57:12;10.16;65.87
66594;DHT22;53450;42.584;23.366;2023-03-25T20:59:37;10.10;65.34
66594;DHT22;53450;42.584;23.366;2023-03-25T21:02:03;10.10;66.42
66594;DHT22;53450;42.584;23.366;2023-03-25T21:04:29;10.09;65.95
66594;DHT22;53450;42.584;23.366;2023-03-25T21:06:54;10.09;66.11
66594;DHT22;53450;42.584;23.366;2023-03-25T21:09:21;10.06;66.65
66594;DHT22;53450;42.584;23.366;2023-03-25T21:11:46;10.10;65.72
66594;DHT22;53450;42.584;23.366;2023-03-25T21:14:14;10.17;65.63
66594;DHT22;53450;42.584;23.366;2023-03-25T21:16:40;10.16;66.23
66594;DHT22;53450;42.584;23.366;2023-03-25T21:19:07;10.19;66.53
66594;DHT22;53450;42.584;23.366;2023-03-25T21:21:33;10.50;67.75
66594;DHT22;53450;42.584;23.366;2023-03-25T21:23:59;10.66;68.67
66594;DHT22;53450;42.584;23.366;2023-03-25T21:26:27;10.68;69.05
66594;DHT22;53450;42.584;23.366;2023-03-25T21:28:56;10.70;69.92
66594;DHT22;53450;42.584;23.366;2023-03-25T21:31:22;10.66;70.57
66594;DHT22;53450;42.584;23.366;2023-03-25T21:33:49;10.53;71.06
66594;DHT22;53450;42.584;23.366;2023-03-25T21:36:19;10.47;71.39
66594;DHT22;53450;42.584;23.366;2023-03-25T21:38:45;10.39;72.09
66594;DHT22;53450;42.584;23.366;2023-03-25T21:41:11;10.30;72.80
66594;DHT22;53450;42.584;23.366;2023-03-25T21:43:38;10.23;73.32
66594;DHT22;53450;42.584;23.366;2023-03-25T21:46:09;10.33;73.38
66594;DHT22;53450;42.584;23.366;2023-03-25T21:48:36;10.23;73.65
66594;DHT22;53450;42.584;23.366;2023-03-25T21:51:10;10.25;73.48
66594;DHT22;53450;42.584;23.366;2023-03-25T21:54:04;10.20;73.48
66594;DHT22;53450;42.584;23.366;2023-03-25T21:56:30;10.12;73.48
66594;DHT22;53450;42.584;23.366;2023-03-25T21:58:58;10.08;73.58
66594;DHT22;53450;42.584;23.366;2023-03-25T22:01:27;10.17;73.37
66594;DHT22;53450;42.584;23.366;2023-03-25T22:03:55;10.20;73.13
66594;DHT22;53450;42.584;23.366;2023-03-25T22:06:27;10.19;73.17